sensor_id;sensor_type;location;lat;lon;timestamp;P1;durP1;ratioP1;P2;durP2;ratioP2
44036;SDS011;62488;-37.670;-63.532;2023-03-09T00:01:39;6.97;;;2.65;;
44036;SDS011;62488;-37.670;-63.532;2023-03-09T00:04:08;3.40;;;2.20;;
44036;SDS011;62488;-37.670;-63.532;2023-03-09T00:06:39;7.95;;;4.55;;
44036;SDS011;62488;-37.670;-63.532;2023-03-09T00:09:06;3.78;;;2.20;;
44036;SDS011;62488;-37.670;-63.532;2023-03-09T00:11:34;7.93;;;4.15;;
44036;SDS011;62488;-37.670;-63.532;2023-03-09T00:14:01;7.82;;;4.03;;
44036;SDS011;62488;-37.670;-63.532;2023-03-09T00:16:28;4.80;;;2.35;;
44036;SDS011;62488;-37.670;-63.532;2023-03-09T00:18:56;13.35;;;2.25;;
44036;SDS011;62488;-37.670;-63.532;2023-03-09T00:21:24;5.03;;;2.15;;
44036;SDS011;62488;-37.670;-63.532;2023-03-09T00:24:12;5.23;;;2.00;;
44036;SDS011;62488;-37.670;-63.532;2023-03-09T00:26:42;8.43;;;2.95;;
44036;SDS011;62488;-37.670;-63.532;2023-03-09T00:29:13;5.78;;;2.22;;
44036;SDS011;62488;-37.670;-63.532;2023-03-09T00:31:40;6.70;;;2.30;;
44036;SDS011;62488;-37.670;-63.532;2023-03-09T00:34:08;5.00;;;2.22;;
44036;SDS011;62488;-37.670;-63.532;2023-03-09T00:36:36;5.28;;;2.30;;
44036;SDS011;62488;-37.670;-63.532;2023-03-09T00:39:04;5.93;;;2.55;;
44036;SDS011;62488;-37.670;-63.532;2023-03-09T00:41:32;8.23;;;2.38;;
44036;SDS011;62488;-37.670;-63.532;2023-03-09T00:44:00;3.85;;;1.98;;
44036;SDS011;62488;-37.670;-63.532;2023-03-09T00:46:29;5.10;;;1.98;;
44036;SDS011;62488;-37.670;-63.532;2023-03-09T00:48:57;7.25;;;2.28;;
44036;SDS011;62488;-37.670;-63.532;2023-03-09T00:51:24;3.60;;;2.03;;
44036;SDS011;62488;-37.670;-63.532;2023-03-09T00:53:52;5.82;;;2.10;;
44036;SDS011;62488;-37.670;-63.532;2023-03-09T00:56:21;2.72;;;1.90;;
44036;SDS011;62488;-37.670;-63.532;2023-03-09T00:58:51;5.25;;;1.80;;
44036;SDS011;62488;-37.670;-63.532;2023-03-09T01:01:19;6.63;;;2.78;;
44036;SDS011;62488;-37.670;-63.532;2023-03-09T01:03:46;8.25;;;2.95;;
44036;SDS011;62488;-37.670;-63.532;2023-03-09T01:06:14;4.85;;;2.25;;
44036;SDS011;62488;-37.670;-63.532;2023-03-09T01:08:42;5.00;;;2.72;;
44036;SDS011;62488;-37.670;-63.532;2023-03-09T01:11:12;13.75;;;3.60;;
44036;SDS011;62488;-37.670;-63.532;2023-03-09T01:13:40;5.85;;;2.83;;
44036;SDS011;62488;-37.670;-63.532;2023-03-09T01:16:07;4.80;;;2.60;;
44036;SDS011;62488;-37.670;-63.532;2023-03-09T01:18:35;4.63;;;2.70;;
44036;SDS011;62488;-37.670;-63.532;2023-03-09T01:21:02;6.57;;;2.97;;
44036;SDS011;62488;-37.670;-63.532;2023-03-09T01:23:29;5.90;;;2.80;;
44036;SDS011;62488;-37.670;-63.532;2023-03-09T01:25:56;6.97;;;3.72;;
44036;SDS011;62488;-37.670;-63.532;2023-03-09T01:28:23;8.90;;;3.50;;
44036;SDS011;62488;-37.670;-63.532;2023-03-09T01:30:50;6.32;;;3.25;;
44036;SDS011;62488;-37.670;-63.532;2023-03-09T01:33:17;7.35;;;4.40;;
44036;SDS011;62488;-37.670;-63.532;2023-03-09T01:35:44;10.02;;;5.93;;
44036;SDS011;62488;-37.670;-63.532;2023-03-09T01:38:11;10.65;;;6.15;;
44036;SDS011;62488;-37.670;-63.532;2023-03-09T01:40:38;8.05;;;4.53;;
44036;SDS011;62488;-37.670;-63.532;2023-03-09T01:43:29;10.38;;;5.30;;
44036;SDS011;62488;-37.670;-63.532;2023-03-09T01:51:39;5.78;;;4.78;;
44036;SDS011;62488;-37.670;-63.532;2023-03-09T01:54:23;7.90;;;2.78;;
44036;SDS011;62488;-37.670;-63.532;2023-03-09T01:57:03;6.43;;;3.70;;
44036;SDS011;62488;-37.670;-63.532;2023-03-09T01:59:59;5.85;;;2.90;;
44036;SDS011;62488;-37.670;-63.532;2023-03-09T02:02:40;7.78;;;3.85;;
44036;SDS011;62488;-37.670;-63.532;2023-03-09T02:05:12;8.73;;;2.58;;
44036;SDS011;62488;-37.670;-63.532;2023-03-09T02:07:45;5.18;;;3.20;;
44036;SDS011;62488;-37.670;-63.532;2023-03-09T02:10:21;14.43;;;3.53;;
44036;SDS011;62488;-37.670;-63.532;2023-03-09T02:12:57;13.63;;;3.33;;
44036;SDS011;62488;-37.670;-63.532;2023-03-09T02:15:28;7.40;;;3.47;;
44036;SDS011;62488;-37.670;-63.532;2023-03-09T02:17:55;6.53;;;3.83;;
44036;SDS011;62488;-37.670;-63.532;2023-03-09T02:20:24;12.27;;;3.67;;
44036;SDS011;62488;-37.670;-63.532;2023-03-09T02:22:56;8.23;;;3.50;;
44036;SDS011;62488;-37.670;-63.532;2023-03-09T02:28:02;6.50;;;3.30;;
44036;SDS011;62488;-37.670;-63.532;2023-03-09T02:30:32;6.45;;;4.45;;
44036;SDS011;62488;-37.670;-63.532;2023-03-09T02:33:09;8.38;;;4.68;;
44036;SDS011;62488;-37.670;-63.532;2023-03-09T02:35:37;9.10;;;5.38;;
44036;SDS011;62488;-37.670;-63.532;2023-03-09T02:38:09;11.90;;;4.47;;
44036;SDS011;62488;-37.670;-63.532;2023-03-09T02:40:39;7.78;;;4.35;;
44036;SDS011;62488;-37.670;-63.532;2023-03-09T02:43:06;9.32;;;4.05;;
44036;SDS011;62488;-37.670;-63.532;2023-03-09T02:45:34;5.00;;;3.33;;
44036;SDS011;62488;-37.670;-63.532;2023-03-09T02:48:01;8.10;;;4.68;;
44036;SDS011;62488;-37.670;-63.532;2023-03-09T02:50:31;8.35;;;4.20;;
44036;SDS011;62488;-37.670;-63.532;2023-03-09T02:52:58;6.65;;;4.18;;
44036;SDS011;62488;-37.670;-63.532;2023-03-09T02:55:26;8.57;;;4.63;;
44036;SDS011;62488;-37.670;-63.532;2023-03-09T02:57:53;5.93;;;3.72;;
44036;SDS011;62488;-37.670;-63.532;2023-03-09T03:00:20;6.80;;;4.07;;
44036;SDS011;62488;-37.670;-63.532;2023-03-09T03:02:49;6.28;;;4.32;;
44036;SDS011;62488;-37.670;-63.532;2023-03-09T03:05:17;8.32;;;4.63;;
44036;SDS011;62488;-37.670;-63.532;2023-03-09T03:07:44;8.63;;;5.32;;
44036;SDS011;62488;-37.670;-63.532;2023-03-09T03:10:12;10.93;;;5.28;;
44036;SDS011;62488;-37.670;-63.532;2023-03-09T03:12:39;9.70;;;5.18;;
44036;SDS011;62488;-37.670;-63.532;2023-03-09T03:15:06;7.30;;;4.75;;
44036;SDS011;62488;-37.670;-63.532;2023-03-09T03:17:34;10.63;;;5.78;;
44036;SDS011;62488;-37.670;-63.532;2023-03-09T03:20:02;10.93;;;5.30;;
44036;SDS011;62488;-37.670;-63.532;2023-03-09T03:22:31;9.77;;;4.93;;
44036;SDS011;62488;-37.670;-63.532;2023-03-09T03:24:58;8.35;;;4.80;;
44036;SDS011;62488;-37.670;-63.532;2023-03-09T03:27:25;9.05;;;5.00;;
44036;SDS011;62488;-37.670;-63.532;2023-03-09T03:29:52;9.48;;;5.20;;
44036;SDS011;62488;-37.670;-63.532;2023-03-09T03:32:19;10.68;;;5.72;;
44036;SDS011;62488;-37.670;-63.532;2023-03-09T03:34:45;8.75;;;5.45;;
44036;SDS011;62488;-37.670;-63.532;2023-03-09T03:37:12;7.95;;;5.07;;
44036;SDS011;62488;-37.670;-63.532;2023-03-09T03:39:41;7.22;;;5.03;;
44036;SDS011;62488;-37.670;-63.532;2023-03-09T03:42:08;7.65;;;4.80;;
44036;SDS011;62488;-37.670;-63.532;2023-03-09T03:44:35;13.85;;;5.57;;
44036;SDS011;62488;-37.670;-63.532;2023-03-09T03:47:02;13.60;;;5.05;;
44036;SDS011;62488;-37.670;-63.532;2023-03-09T03:49:30;5.35;;;4.70;;
44036;SDS011;62488;-37.670;-63.532;2023-03-09T03:51:57;10.13;;;6.15;;
44036;SDS011;62488;-37.670;-63.532;2023-03-09T03:54:24;9.98;;;5.55;;
44036;SDS011;62488;-37.670;-63.532;2023-03-09T03:56:51;12.55;;;6.03;;
44036;SDS011;62488;-37.670;-63.532;2023-03-09T03:59:18;7.60;;;5.78;;
44036;SDS011;62488;-37.670;-63.532;2023-03-09T04:01:48;6.18;;;5.40;;
44036;SDS011;62488;-37.670;-63.532;2023-03-09T04:04:15;9.45;;;5.70;;
44036;SDS011;62488;-37.670;-63.532;2023-03-09T04:06:42;6.38;;;5.45;;
44036;SDS011;62488;-37.670;-63.532;2023-03-09T04:09:09;8.98;;;7.05;;
44036;SDS011;62488;-37.670;-63.532;2023-03-09T04:11:36;7.85;;;6.88;;
44036;SDS011;62488;-37.670;-63.532;2023-03-09T04:14:03;10.07;;;6.57;;
44036;SDS011;62488;-37.670;-63.532;2023-03-09T04:16:30;11.30;;;6.70;;
44036;SDS011;62488;-37.670;-63.532;2023-03-09T04:18:57;13.50;;;7.82;;
44036;SDS011;62488;-37.670;-63.532;2023-03-09T04:21:24;13.23;;;7.53;;
44036;SDS011;62488;-37.670;-63.532;2023-03-09T04:23:51;8.95;;;6.85;;
44036;SDS011;62488;-37.670;-63.532;2023-03-09T04:26:18;11.82;;;7.07;;
44036;SDS011;62488;-37.670;-63.532;2023-03-09T04:28:45;9.07;;;6.03;;
44036;SDS011;62488;-37.670;-63.532;2023-03-09T04:31:12;11.15;;;7.53;;
44036;SDS011;62488;-37.670;-63.532;2023-03-09T04:33:40;7.10;;;6.45;;
44036;SDS011;62488;-37.670;-63.532;2023-03-09T04:36:09;10.48;;;6.68;;
44036;SDS011;62488;-37.670;-63.532;2023-03-09T04:38:37;7.90;;;6.10;;
44036;SDS011;62488;-37.670;-63.532;2023-03-09T04:41:05;6.70;;;6.03;;
44036;SDS011;62488;-37.670;-63.532;2023-03-09T04:43:32;8.45;;;5.88;;
44036;SDS011;62488;-37.670;-63.532;2023-03-09T04:45:59;8.07;;;5.55;;
44036;SDS011;62488;-37.670;-63.532;2023-03-09T04:48:26;11.38;;;5.68;;
44036;SDS011;62488;-37.670;-63.532;2023-03-09T04:50:53;5.00;;;4.60;;
44036;SDS011;62488;-37.670;-63.532;2023-03-09T04:53:20;6.03;;;5.38;;
44036;SDS011;62488;-37.670;-63.532;2023-03-09T04:55:47;5.50;;;4.95;;
44036;SDS011;62488;-37.670;-63.532;2023-03-09T04:58:16;6.27;;;4.90;;
44036;SDS011;62488;-37.670;-63.532;2023-03-09T05:00:43;10.45;;;4.35;;
44036;SDS011;62488;-37.670;-63.532;2023-03-09T05:03:10;9.35;;;4.50;;
44036;SDS011;62488;-37.670;-63.532;2023-03-09T05:05:37;8.63;;;4.22;;
44036;SDS011;62488;-37.670;-63.532;2023-03-09T05:08:04;6.05;;;4.28;;
44036;SDS011;62488;-37.670;-63.532;2023-03-09T05:10:31;5.38;;;3.67;;
44036;SDS011;62488;-37.670;-63.532;2023-03-09T05:12:58;6.68;;;4.05;;
44036;SDS011;62488;-37.670;-63.532;2023-03-09T05:27:37;6.70;;;4.25;;
44036;SDS011;62488;-37.670;-63.532;2023-03-09T05:30:04;7.65;;;4.88;;
44036;SDS011;62488;-37.670;-63.532;2023-03-09T05:32:32;6.82;;;4.15;;
44036;SDS011;62488;-37.670;-63.532;2023-03-09T05:34:59;5.75;;;4.20;;
44036;SDS011;62488;-37.670;-63.532;2023-03-09T05:37:27;7.90;;;4.25;;
44036;SDS011;62488;-37.670;-63.532;2023-03-09T05:39:54;3.78;;;3.30;;
44036;SDS011;62488;-37.670;-63.532;2023-03-09T05:42:20;5.07;;;3.08;;
44036;SDS011;62488;-37.670;-63.532;2023-03-09T05:44:48;5.93;;;3.33;;
44036;SDS011;62488;-37.670;-63.532;2023-03-09T05:47:15;5.68;;;3.85;;
44036;SDS011;62488;-37.670;-63.532;2023-03-09T05:49:42;4.43;;;3.20;;
44036;SDS011;62488;-37.670;-63.532;2023-03-09T05:52:09;7.82;;;3.55;;
44036;SDS011;62488;-37.670;-63.532;2023-03-09T05:54:36;5.68;;;3.35;;
44036;SDS011;62488;-37.670;-63.532;2023-03-09T05:57:03;6.40;;;3.67;;
44036;SDS011;62488;-37.670;-63.532;2023-03-09T05:59:30;9.45;;;2.90;;
44036;SDS011;62488;-37.670;-63.532;2023-03-09T06:01:57;6.35;;;3.95;;
44036;SDS011;62488;-37.670;-63.532;2023-03-09T06:04:24;4.32;;;3.13;;
44036;SDS011;62488;-37.670;-63.532;2023-03-09T06:06:51;6.25;;;3.30;;
44036;SDS011;62488;-37.670;-63.532;2023-03-09T06:09:18;6.80;;;3.45;;
44036;SDS011;62488;-37.670;-63.532;2023-03-09T06:11:46;6.32;;;3.45;;
44036;SDS011;62488;-37.670;-63.532;2023-03-09T06:14:13;6.22;;;3.55;;
44036;SDS011;62488;-37.670;-63.532;2023-03-09T06:16:40;6.03;;;3.47;;
44036;SDS011;62488;-37.670;-63.532;2023-03-09T06:19:07;5.13;;;3.40;;
44036;SDS011;62488;-37.670;-63.532;2023-03-09T06:21:35;6.88;;;3.85;;
44036;SDS011;62488;-37.670;-63.532;2023-03-09T06:24:02;4.95;;;3.40;;
44036;SDS011;62488;-37.670;-63.532;2023-03-09T06:26:29;5.03;;;3.28;;
44036;SDS011;62488;-37.670;-63.532;2023-03-09T06:28:56;4.72;;;3.20;;
44036;SDS011;62488;-37.670;-63.532;2023-03-09T06:31:23;8.80;;;3.28;;
44036;SDS011;62488;-37.670;-63.532;2023-03-09T06:33:50;7.30;;;3.30;;
44036;SDS011;62488;-37.670;-63.532;2023-03-09T06:36:17;6.25;;;3.45;;
44036;SDS011;62488;-37.670;-63.532;2023-03-09T06:38:44;5.88;;;4.30;;
44036;SDS011;62488;-37.670;-63.532;2023-03-09T06:41:11;4.30;;;3.90;;
44036;SDS011;62488;-37.670;-63.532;2023-03-09T06:43:40;9.23;;;4.75;;
44036;SDS011;62488;-37.670;-63.532;2023-03-09T06:46:10;4.93;;;4.00;;
44036;SDS011;62488;-37.670;-63.532;2023-03-09T06:48:37;6.55;;;4.57;;
44036;SDS011;62488;-37.670;-63.532;2023-03-09T06:51:05;5.93;;;4.88;;
44036;SDS011;62488;-37.670;-63.532;2023-03-09T06:53:32;8.10;;;4.53;;
44036;SDS011;62488;-37.670;-63.532;2023-03-09T06:55:59;7.53;;;5.20;;
44036;SDS011;62488;-37.670;-63.532;2023-03-09T06:58:26;6.07;;;4.93;;
44036;SDS011;62488;-37.670;-63.532;2023-03-09T07:00:54;6.75;;;4.78;;
44036;SDS011;62488;-37.670;-63.532;2023-03-09T07:03:21;5.70;;;4.93;;
44036;SDS011;62488;-37.670;-63.532;2023-03-09T07:05:48;8.65;;;5.43;;
44036;SDS011;62488;-37.670;-63.532;2023-03-09T07:08:15;8.00;;;5.07;;
44036;SDS011;62488;-37.670;-63.532;2023-03-09T07:10:43;12.52;;;5.55;;
44036;SDS011;62488;-37.670;-63.532;2023-03-09T07:13:13;7.35;;;5.47;;
44036;SDS011;62488;-37.670;-63.532;2023-03-09T07:15:41;6.53;;;4.95;;
44036;SDS011;62488;-37.670;-63.532;2023-03-09T07:18:08;7.80;;;5.63;;
44036;SDS011;62488;-37.670;-63.532;2023-03-09T07:20:39;7.13;;;4.95;;
44036;SDS011;62488;-37.670;-63.532;2023-03-09T07:23:08;6.85;;;5.05;;
44036;SDS011;62488;-37.670;-63.532;2023-03-09T07:25:36;5.97;;;5.32;;
44036;SDS011;62488;-37.670;-63.532;2023-03-09T07:28:04;7.50;;;5.57;;
44036;SDS011;62488;-37.670;-63.532;2023-03-09T07:30:33;8.50;;;4.80;;
44036;SDS011;62488;-37.670;-63.532;2023-03-09T07:33:01;5.57;;;5.07;;
44036;SDS011;62488;-37.670;-63.532;2023-03-09T07:35:29;9.10;;;4.65;;
44036;SDS011;62488;-37.670;-63.532;2023-03-09T07:37:56;6.60;;;4.82;;
44036;SDS011;62488;-37.670;-63.532;2023-03-09T07:40:23;8.95;;;5.95;;
44036;SDS011;62488;-37.670;-63.532;2023-03-09T07:42:50;7.30;;;5.10;;
44036;SDS011;62488;-37.670;-63.532;2023-03-09T07:45:20;9.27;;;5.18;;
44036;SDS011;62488;-37.670;-63.532;2023-03-09T07:47:48;5.97;;;5.00;;
44036;SDS011;62488;-37.670;-63.532;2023-03-09T07:50:16;8.45;;;5.78;;
44036;SDS011;62488;-37.670;-63.532;2023-03-09T07:52:44;9.52;;;5.57;;
44036;SDS011;62488;-37.670;-63.532;2023-03-09T07:55:12;7.57;;;5.28;;
44036;SDS011;62488;-37.670;-63.532;2023-03-09T07:57:40;5.30;;;4.80;;
44036;SDS011;62488;-37.670;-63.532;2023-03-09T08:00:11;7.05;;;5.15;;
44036;SDS011;62488;-37.670;-63.532;2023-03-09T08:02:46;8.70;;;5.40;;
44036;SDS011;62488;-37.670;-63.532;2023-03-09T08:05:13;16.00;;;5.53;;
44036;SDS011;62488;-37.670;-63.532;2023-03-09T08:07:40;8.02;;;4.63;;
44036;SDS011;62488;-37.670;-63.532;2023-03-09T08:10:08;7.55;;;4.72;;
44036;SDS011;62488;-37.670;-63.532;2023-03-09T08:12:35;7.65;;;4.93;;
44036;SDS011;62488;-37.670;-63.532;2023-03-09T08:15:02;7.38;;;5.13;;
44036;SDS011;62488;-37.670;-63.532;2023-03-09T08:17:29;8.98;;;5.90;;
44036;SDS011;62488;-37.670;-63.532;2023-03-09T08:19:57;5.57;;;4.90;;
44036;SDS011;62488;-37.670;-63.532;2023-03-09T08:22:24;8.35;;;5.50;;
44036;SDS011;62488;-37.670;-63.532;2023-03-09T08:24:51;9.27;;;5.57;;
44036;SDS011;62488;-37.670;-63.532;2023-03-09T08:27:18;12.07;;;5.35;;
44036;SDS011;62488;-37.670;-63.532;2023-03-09T08:29:45;6.30;;;5.53;;
44036;SDS011;62488;-37.670;-63.532;2023-03-09T08:32:12;6.80;;;5.65;;
44036;SDS011;62488;-37.670;-63.532;2023-03-09T08:34:39;7.22;;;4.47;;
44036;SDS011;62488;-37.670;-63.532;2023-03-09T08:37:06;7.70;;;5.97;;
44036;SDS011;62488;-37.670;-63.532;2023-03-09T08:39:33;5.50;;;5.00;;
44036;SDS011;62488;-37.670;-63.532;2023-03-09T08:42:00;10.32;;;6.80;;
44036;SDS011;62488;-37.670;-63.532;2023-03-09T08:44:27;7.18;;;5.72;;
44036;SDS011;62488;-37.670;-63.532;2023-03-09T08:46:54;18.77;;;6.63;;
44036;SDS011;62488;-37.670;-63.532;2023-03-09T08:49:21;11.38;;;5.80;;
44036;SDS011;62488;-37.670;-63.532;2023-03-09T08:51:48;10.77;;;7.32;;
44036;SDS011;62488;-37.670;-63.532;2023-03-09T08:54:15;9.20;;;5.85;;
44036;SDS011;62488;-37.670;-63.532;2023-03-09T08:56:42;9.80;;;6.20;;
44036;SDS011;62488;-37.670;-63.532;2023-03-09T08:59:09;9.02;;;5.30;;
44036;SDS011;62488;-37.670;-63.532;2023-03-09T09:01:36;8.90;;;5.65;;
44036;SDS011;62488;-37.670;-63.532;2023-03-09T09:04:04;8.35;;;6.00;;
44036;SDS011;62488;-37.670;-63.532;2023-03-09T09:06:31;9.82;;;6.47;;
44036;SDS011;62488;-37.670;-63.532;2023-03-09T09:08:58;9.68;;;6.95;;
44036;SDS011;62488;-37.670;-63.532;2023-03-09T09:11:25;12.85;;;7.03;;
44036;SDS011;62488;-37.670;-63.532;2023-03-09T09:13:52;12.48;;;7.20;;
44036;SDS011;62488;-37.670;-63.532;2023-03-09T09:16:20;12.13;;;6.82;;
44036;SDS011;62488;-37.670;-63.532;2023-03-09T09:18:47;11.45;;;6.47;;
44036;SDS011;62488;-37.670;-63.532;2023-03-09T09:21:15;13.45;;;6.88;;
44036;SDS011;62488;-37.670;-63.532;2023-03-09T09:23:43;11.00;;;6.27;;
44036;SDS011;62488;-37.670;-63.532;2023-03-09T09:26:11;8.13;;;6.47;;
44036;SDS011;62488;-37.670;-63.532;2023-03-09T09:28:40;7.10;;;6.13;;
44036;SDS011;62488;-37.670;-63.532;2023-03-09T09:31:09;8.70;;;5.55;;
44036;SDS011;62488;-37.670;-63.532;2023-03-09T09:33:38;10.23;;;6.18;;
44036;SDS011;62488;-37.670;-63.532;2023-03-09T09:36:06;7.65;;;6.95;;
44036;SDS011;62488;-37.670;-63.532;2023-03-09T09:38:36;7.93;;;6.57;;
44036;SDS011;62488;-37.670;-63.532;2023-03-09T09:44:06;7.82;;;5.60;;
44036;SDS011;62488;-37.670;-63.532;2023-03-09T09:46:41;16.02;;;6.35;;
44036;SDS011;62488;-37.670;-63.532;2023-03-09T09:49:14;11.35;;;6.03;;
44036;SDS011;62488;-37.670;-63.532;2023-03-09T09:54:39;20.10;;;8.02;;
44036;SDS011;62488;-37.670;-63.532;2023-03-09T09:57:23;22.13;;;7.45;;
44036;SDS011;62488;-37.670;-63.532;2023-03-09T10:00:01;26.63;;;7.95;;
44036;SDS011;62488;-37.670;-63.532;2023-03-09T10:02:37;28.23;;;9.52;;
44036;SDS011;62488;-37.670;-63.532;2023-03-09T10:05:52;14.10;;;8.15;;
44036;SDS011;62488;-37.670;-63.532;2023-03-09T10:19:44;14.13;;;7.60;;
44036;SDS011;62488;-37.670;-63.532;2023-03-09T10:24:45;22.38;;;8.13;;
44036;SDS011;62488;-37.670;-63.532;2023-03-09T10:30:02;18.88;;;6.78;;
44036;SDS011;62488;-37.670;-63.532;2023-03-09T10:35:18;11.95;;;6.82;;
44036;SDS011;62488;-37.670;-63.532;2023-03-09T10:38:00;14.50;;;7.22;;
44036;SDS011;62488;-37.670;-63.532;2023-03-09T10:40:29;21.02;;;6.68;;
44036;SDS011;62488;-37.670;-63.532;2023-03-09T10:43:00;17.45;;;7.20;;
44036;SDS011;62488;-37.670;-63.532;2023-03-09T10:45:28;16.10;;;6.72;;
44036;SDS011;62488;-37.670;-63.532;2023-03-09T10:48:00;25.13;;;8.03;;
44036;SDS011;62488;-37.670;-63.532;2023-03-09T10:50:32;20.35;;;6.53;;
44036;SDS011;62488;-37.670;-63.532;2023-03-09T10:56:12;15.48;;;8.30;;
44036;SDS011;62488;-37.670;-63.532;2023-03-09T10:59:34;42.90;;;9.10;;
44036;SDS011;62488;-37.670;-63.532;2023-03-09T11:01:43;23.88;;;7.00;;
44036;SDS011;62488;-37.670;-63.532;2023-03-09T11:07:37;23.52;;;7.18;;
44036;SDS011;62488;-37.670;-63.532;2023-03-09T11:10:18;21.38;;;6.03;;
44036;SDS011;62488;-37.670;-63.532;2023-03-09T11:12:57;16.35;;;6.05;;
44036;SDS011;62488;-37.670;-63.532;2023-03-09T11:15:34;12.05;;;5.50;;
44036;SDS011;62488;-37.670;-63.532;2023-03-09T11:18:26;11.65;;;5.57;;
44036;SDS011;62488;-37.670;-63.532;2023-03-09T11:20:54;16.52;;;6.00;;
44036;SDS011;62488;-37.670;-63.532;2023-03-09T11:31:40;40.65;;;6.97;;
44036;SDS011;62488;-37.670;-63.532;2023-03-09T11:36:47;13.57;;;4.95;;
44036;SDS011;62488;-37.670;-63.532;2023-03-09T11:42:11;20.23;;;5.47;;
44036;SDS011;62488;-37.670;-63.532;2023-03-09T11:44:42;13.05;;;5.05;;
44036;SDS011;62488;-37.670;-63.532;2023-03-09T11:47:46;20.60;;;5.15;;
44036;SDS011;62488;-37.670;-63.532;2023-03-09T11:50:26;31.17;;;6.65;;
44036;SDS011;62488;-37.670;-63.532;2023-03-09T11:53:17;34.00;;;6.63;;
44036;SDS011;62488;-37.670;-63.532;2023-03-09T11:55:55;20.42;;;6.20;;
44036;SDS011;62488;-37.670;-63.532;2023-03-09T11:58:39;17.65;;;5.38;;
44036;SDS011;62488;-37.670;-63.532;2023-03-09T12:01:22;14.80;;;4.88;;
44036;SDS011;62488;-37.670;-63.532;2023-03-09T12:04:00;39.95;;;6.28;;
44036;SDS011;62488;-37.670;-63.532;2023-03-09T12:09:10;10.23;;;3.60;;
44036;SDS011;62488;-37.670;-63.532;2023-03-09T12:12:04;6.88;;;3.10;;
44036;SDS011;62488;-37.670;-63.532;2023-03-09T12:14:52;7.65;;;3.25;;
44036;SDS011;62488;-37.670;-63.532;2023-03-09T12:17:43;5.70;;;3.38;;
44036;SDS011;62488;-37.670;-63.532;2023-03-09T12:22:54;11.65;;;2.78;;
44036;SDS011;62488;-37.670;-63.532;2023-03-09T12:25:41;7.43;;;2.88;;
44036;SDS011;62488;-37.670;-63.532;2023-03-09T12:28:22;11.23;;;3.25;;
44036;SDS011;62488;-37.670;-63.532;2023-03-09T12:30:55;10.75;;;3.40;;
44036;SDS011;62488;-37.670;-63.532;2023-03-09T12:36:23;14.55;;;2.83;;
44036;SDS011;62488;-37.670;-63.532;2023-03-09T12:41:59;6.57;;;2.45;;
44036;SDS011;62488;-37.670;-63.532;2023-03-09T12:49:48;9.98;;;1.85;;
44036;SDS011;62488;-37.670;-63.532;2023-03-09T12:55:29;13.15;;;2.72;;
44036;SDS011;62488;-37.670;-63.532;2023-03-09T12:58:27;8.40;;;2.67;;
44036;SDS011;62488;-37.670;-63.532;2023-03-09T13:00:57;14.30;;;3.38;;
44036;SDS011;62488;-37.670;-63.532;2023-03-09T13:09:01;14.68;;;3.47;;
44036;SDS011;62488;-37.670;-63.532;2023-03-09T13:11:32;17.95;;;3.85;;
44036;SDS011;62488;-37.670;-63.532;2023-03-09T13:17:38;15.60;;;3.50;;
44036;SDS011;62488;-37.670;-63.532;2023-03-09T13:20:13;14.43;;;2.78;;
44036;SDS011;62488;-37.670;-63.532;2023-03-09T13:22:40;8.35;;;2.88;;
44036;SDS011;62488;-37.670;-63.532;2023-03-09T13:28:10;13.52;;;2.58;;
44036;SDS011;62488;-37.670;-63.532;2023-03-09T13:30:50;8.98;;;3.10;;
44036;SDS011;62488;-37.670;-63.532;2023-03-09T13:33:22;5.65;;;2.45;;
44036;SDS011;62488;-37.670;-63.532;2023-03-09T13:35:58;13.98;;;4.65;;
44036;SDS011;62488;-37.670;-63.532;2023-03-09T13:38:36;9.50;;;3.13;;
44036;SDS011;62488;-37.670;-63.532;2023-03-09T13:41:05;14.02;;;3.00;;
44036;SDS011;62488;-37.670;-63.532;2023-03-09T13:43:44;6.20;;;2.70;;
44036;SDS011;62488;-37.670;-63.532;2023-03-09T13:48:57;8.50;;;2.80;;
44036;SDS011;62488;-37.670;-63.532;2023-03-09T13:54:50;5.35;;;2.50;;
44036;SDS011;62488;-37.670;-63.532;2023-03-09T13:57:23;7.45;;;2.17;;
44036;SDS011;62488;-37.670;-63.532;2023-03-09T14:00:00;10.32;;;2.08;;
44036;SDS011;62488;-37.670;-63.532;2023-03-09T14:02:43;14.05;;;2.97;;
44036;SDS011;62488;-37.670;-63.532;2023-03-09T14:07:50;14.90;;;2.38;;
44036;SDS011;62488;-37.670;-63.532;2023-03-09T14:10:28;5.80;;;1.75;;
44036;SDS011;62488;-37.670;-63.532;2023-03-09T14:13:00;7.15;;;1.92;;
44036;SDS011;62488;-37.670;-63.532;2023-03-09T14:15:30;7.80;;;2.60;;
44036;SDS011;62488;-37.670;-63.532;2023-03-09T14:17:59;8.88;;;2.03;;
44036;SDS011;62488;-37.670;-63.532;2023-03-09T14:20:36;9.18;;;2.65;;
44036;SDS011;62488;-37.670;-63.532;2023-03-09T14:25:43;6.82;;;1.65;;
44036;SDS011;62488;-37.670;-63.532;2023-03-09T14:28:23;8.45;;;1.77;;
44036;SDS011;62488;-37.670;-63.532;2023-03-09T14:30:55;6.70;;;2.13;;
44036;SDS011;62488;-37.670;-63.532;2023-03-09T14:33:32;7.75;;;2.10;;
44036;SDS011;62488;-37.670;-63.532;2023-03-09T14:36:18;9.23;;;2.70;;
44036;SDS011;62488;-37.670;-63.532;2023-03-09T14:39:22;5.93;;;1.90;;
44036;SDS011;62488;-37.670;-63.532;2023-03-09T14:44:46;10.15;;;1.75;;
44036;SDS011;62488;-37.670;-63.532;2023-03-09T14:47:35;4.70;;;1.63;;
44036;SDS011;62488;-37.670;-63.532;2023-03-09T14:50:04;19.27;;;2.85;;
44036;SDS011;62488;-37.670;-63.532;2023-03-09T14:52:32;5.85;;;1.92;;
44036;SDS011;62488;-37.670;-63.532;2023-03-09T14:55:02;7.88;;;1.65;;
44036;SDS011;62488;-37.670;-63.532;2023-03-09T14:57:31;9.63;;;1.75;;
44036;SDS011;62488;-37.670;-63.532;2023-03-09T14:59:58;11.32;;;2.92;;
44036;SDS011;62488;-37.670;-63.532;2023-03-09T15:02:25;9.25;;;1.92;;
44036;SDS011;62488;-37.670;-63.532;2023-03-09T15:04:52;9.15;;;1.60;;
44036;SDS011;62488;-37.670;-63.532;2023-03-09T15:07:19;31.42;;;3.58;;
44036;SDS011;62488;-37.670;-63.532;2023-03-09T15:09:46;8.45;;;1.75;;
44036;SDS011;62488;-37.670;-63.532;2023-03-09T15:12:15;7.13;;;1.52;;
44036;SDS011;62488;-37.670;-63.532;2023-03-09T15:14:47;9.30;;;2.05;;
44036;SDS011;62488;-37.670;-63.532;2023-03-09T15:17:17;11.83;;;1.97;;
44036;SDS011;62488;-37.670;-63.532;2023-03-09T15:19:46;20.52;;;3.38;;
44036;SDS011;62488;-37.670;-63.532;2023-03-09T15:22:15;10.98;;;2.05;;
44036;SDS011;62488;-37.670;-63.532;2023-03-09T15:24:44;4.18;;;1.50;;
44036;SDS011;62488;-37.670;-63.532;2023-03-09T15:27:11;10.88;;;1.88;;
44036;SDS011;62488;-37.670;-63.532;2023-03-09T15:29:39;4.50;;;1.70;;
44036;SDS011;62488;-37.670;-63.532;2023-03-09T15:32:06;8.00;;;1.90;;
44036;SDS011;62488;-37.670;-63.532;2023-03-09T15:34:38;6.88;;;1.75;;
44036;SDS011;62488;-37.670;-63.532;2023-03-09T15:37:09;5.07;;;2.33;;
44036;SDS011;62488;-37.670;-63.532;2023-03-09T15:39:36;13.68;;;2.15;;
44036;SDS011;62488;-37.670;-63.532;2023-03-09T15:42:04;7.05;;;2.08;;
44036;SDS011;62488;-37.670;-63.532;2023-03-09T15:44:32;9.15;;;1.60;;
44036;SDS011;62488;-37.670;-63.532;2023-03-09T15:47:00;20.90;;;3.30;;
44036;SDS011;62488;-37.670;-63.532;2023-03-09T15:49:27;9.73;;;2.50;;
44036;SDS011;62488;-37.670;-63.532;2023-03-09T15:51:54;3.13;;;1.67;;
44036;SDS011;62488;-37.670;-63.532;2023-03-09T15:54:21;7.07;;;2.03;;
44036;SDS011;62488;-37.670;-63.532;2023-03-09T15:56:48;12.85;;;2.05;;
44036;SDS011;62488;-37.670;-63.532;2023-03-09T15:59:15;4.72;;;1.70;;
44036;SDS011;62488;-37.670;-63.532;2023-03-09T16:01:42;5.47;;;1.83;;
44036;SDS011;62488;-37.670;-63.532;2023-03-09T16:04:09;23.90;;;4.15;;
44036;SDS011;62488;-37.670;-63.532;2023-03-09T16:06:38;9.38;;;1.55;;
44036;SDS011;62488;-37.670;-63.532;2023-03-09T16:09:05;15.63;;;3.08;;
44036;SDS011;62488;-37.670;-63.532;2023-03-09T16:11:32;14.70;;;2.63;;
44036;SDS011;62488;-37.670;-63.532;2023-03-09T16:13:59;12.68;;;2.15;;
44036;SDS011;62488;-37.670;-63.532;2023-03-09T16:16:26;11.60;;;2.45;;